Decoded Metar for OIAM (BANDAR MAHSHAHR in IRAN) (IATA:MRX) | Meteo·Mobile Aviation Weather
aviador You're here:

OIAM Decoded Metar

BANDAR MAHSHAHR in IRAN
Report Time2018-11-16 07:00:00
UTC Time2018-11-16 07:51:31
Flight Rules vfr VFR
Wind120° at 10 kt
W.Decomp.*RWY 13: 9.7 kt HW 2.2 kt LCW
W.Rank120° ranks 6
Current wind is above 120° avg. (8.8)
Visibility9999 m
Phenomena:N/A
Clouds:Scattered 040 Hf
Expected CloudBase > 2,000 ft AGL from Temp-Dew spread
CeilingNone
Temp23°C (ISA +8)
Dew Point18°C (74% RH)
AAT22.2°C
QNH1016 hPa
Density Alt1,119 ft
Elevation13 ft
Report Wrong Elevation
Raw Report
METAR OIAM 160700Z 12010KT 9999 SCT040 23/18 Q1016=

Extra information for OIAM:More info

Metar Taf Metar & Taf Last 4 Metars F.Rules Stats Wind Profile Meteogram Temp Stats Airport Information Weather charts Add Link Nearby VenuesMetar ALERT Operation Metar Decoded Social comments